createdAt,value
2023-02-16T00:05:33.834Z,0
2023-02-16T00:11:56.788Z,0
2023-02-16T00:18:16.812Z,0
2023-02-16T00:24:39.861Z,0
2023-02-16T00:30:59.852Z,0
2023-02-16T00:37:22.824Z,0
2023-02-16T00:43:42.855Z,0
2023-02-16T00:50:05.877Z,0
2023-02-16T00:56:25.875Z,0
2023-02-16T01:02:48.923Z,0
2023-02-16T01:09:08.885Z,0
2023-02-16T01:15:31.937Z,0
2023-02-16T01:21:51.832Z,0
2023-02-16T01:28:14.789Z,0
2023-02-16T01:34:34.952Z,0
2023-02-16T01:40:57.766Z,0
2023-02-16T01:47:17.854Z,0
2023-02-16T01:53:40.989Z,0
2023-02-16T02:00:00.764Z,0
2023-02-16T02:06:24.887Z,0
2023-02-16T02:12:45.021Z,0
2023-02-16T02:19:07.899Z,0
2023-02-16T02:25:27.867Z,0
2023-02-16T02:31:51.012Z,0
2023-02-16T02:38:10.762Z,0
2023-02-16T02:44:33.810Z,0
2023-02-16T02:50:53.856Z,0
2023-02-16T02:57:16.896Z,0
2023-02-16T03:03:36.946Z,0
2023-02-16T03:09:59.794Z,0
2023-02-16T03:16:19.792Z,0
2023-02-16T03:22:42.844Z,0
2023-02-16T03:29:02.906Z,0
2023-02-16T03:35:25.853Z,0
2023-02-16T03:41:45.827Z,0
2023-02-16T03:48:08.829Z,0
2023-02-16T03:54:28.833Z,0
2023-02-16T04:00:51.955Z,0
2023-02-16T04:07:11.835Z,0
2023-02-16T04:24:03.315Z,0
2023-02-16T04:30:22.815Z,0
2023-02-16T04:36:45.774Z,0
2023-02-16T04:43:05.767Z,0
2023-02-16T04:49:28.765Z,0
2023-02-16T04:55:48.731Z,0
2023-02-16T05:02:11.794Z,0
2023-02-16T05:08:31.731Z,0
2023-02-16T05:14:54.758Z,0
2023-02-16T05:21:14.993Z,0
2023-02-16T05:27:37.870Z,0
2023-02-16T05:33:57.891Z,0
2023-02-16T05:40:20.967Z,0
2023-02-16T05:46:40.778Z,0
2023-02-16T05:53:03.788Z,0
2023-02-16T05:59:23.780Z,0
2023-02-16T06:05:48.492Z,0
2023-02-16T06:12:08.768Z,0
2023-02-16T06:18:31.808Z,0
2023-02-16T06:24:51.775Z,0
2023-02-16T06:31:14.901Z,0
2023-02-16T06:37:34.794Z,0
2023-02-16T06:43:57.892Z,0
2023-02-16T06:50:17.787Z,0
2023-02-16T06:56:40.917Z,0
2023-02-16T07:03:00.863Z,5.62
2023-02-16T07:09:23.826Z,5.62
2023-02-16T07:15:43.804Z,11.25
2023-02-16T07:22:06.912Z,11.25
2023-02-16T07:28:26.830Z,16.88
2023-02-16T07:34:49.782Z,22.5
2023-02-16T07:41:10.380Z,22.5
2023-02-16T07:47:32.762Z,16.88
2023-02-16T07:53:52.837Z,16.88
2023-02-16T08:00:15.851Z,11.25
2023-02-16T08:06:36.028Z,16.88
2023-02-16T08:12:58.861Z,22.5
2023-02-16T08:19:18.862Z,28.12
2023-02-16T08:25:41.768Z,33.75
2023-02-16T08:32:01.862Z,33.75
2023-02-16T08:38:24.882Z,33.75
2023-02-16T08:44:44.899Z,28.12
2023-02-16T08:51:07.863Z,22.5
2023-02-16T08:57:27.875Z,22.5
2023-02-16T09:03:50.871Z,22.5
2023-02-16T09:10:10.787Z,28.12
2023-02-16T09:33:52.775Z,28.12
2023-02-16T09:40:15.739Z,22.5
2023-02-16T09:46:35.810Z,28.12
2023-02-16T09:52:58.806Z,61.88
2023-02-16T09:59:18.824Z,67.5
2023-02-16T10:05:42.813Z,78.75
2023-02-16T10:12:03.111Z,73.12
2023-02-16T10:18:25.894Z,78.75
2023-02-16T10:24:45.773Z,90
2023-02-16T10:31:09.252Z,73.12
2023-02-16T10:37:28.779Z,73.12
2023-02-16T10:43:51.753Z,50.62
2023-02-16T10:50:11.829Z,45
2023-02-16T10:56:34.776Z,50.62
2023-02-16T11:02:54.857Z,61.88
2023-02-16T11:09:17.863Z,61.88
2023-02-16T11:15:37.756Z,78.75
2023-02-16T11:22:00.793Z,84.38
2023-02-16T11:28:20.773Z,78.75
2023-02-16T11:34:43.781Z,61.88
2023-02-16T11:41:04.007Z,45
2023-02-16T11:47:26.822Z,45
2023-02-16T11:53:46.853Z,61.88
2023-02-16T12:00:09.887Z,78.75
2023-02-16T12:06:29.834Z,56.25
2023-02-16T12:12:52.827Z,39.38
2023-02-16T12:19:12.799Z,28.12
2023-02-16T12:25:35.936Z,33.75
2023-02-16T12:31:56.106Z,33.75
2023-02-16T12:38:19.802Z,33.75
2023-02-16T12:44:39.824Z,33.75
2023-02-16T12:51:03.082Z,33.75
2023-02-16T12:57:22.755Z,33.75
2023-02-16T13:03:46.093Z,33.75
2023-02-16T13:10:05.855Z,33.75
2023-02-16T13:16:30.702Z,28.12
2023-02-16T13:22:48.828Z,33.75
2023-02-16T13:29:11.894Z,28.12
2023-02-16T13:35:31.828Z,22.5
2023-02-16T13:41:54.809Z,16.88
2023-02-16T13:48:14.779Z,16.88
2023-02-16T13:54:37.871Z,28.12
2023-02-16T14:00:57.829Z,45
2023-02-16T14:07:20.758Z,45
2023-02-16T14:13:40.799Z,39.38
2023-02-16T14:20:03.803Z,56.25
2023-02-16T14:26:23.820Z,56.25
2023-02-16T14:32:46.754Z,39.38
2023-02-16T14:39:06.770Z,45
2023-02-16T14:55:36.061Z,45
2023-02-16T15:01:55.750Z,50.62
2023-02-16T15:08:18.746Z,50.62
2023-02-16T15:14:38.816Z,50.62
2023-02-16T15:21:01.754Z,33.75
2023-02-16T15:27:21.827Z,28.12
2023-02-16T15:33:44.769Z,28.12
2023-02-16T15:40:24.159Z,28.12
2023-02-16T15:46:27.806Z,28.12
2023-02-16T15:52:47.757Z,22.5
2023-02-16T15:59:10.799Z,22.5
2023-02-16T16:05:30.741Z,16.88
2023-02-16T16:11:53.782Z,16.88
2023-02-16T16:18:14.957Z,11.25
2023-02-16T16:24:38.070Z,5.62
2023-02-16T16:30:57.904Z,5.62
2023-02-16T16:37:20.767Z,0
2023-02-16T16:43:40.893Z,0
2023-02-16T16:50:03.945Z,0
2023-02-16T16:56:23.789Z,0
2023-02-16T17:02:46.857Z,0
2023-02-16T17:09:06.789Z,0
2023-02-16T17:15:29.808Z,0
2023-02-16T17:21:49.793Z,0
2023-02-16T17:28:12.823Z,0
2023-02-16T17:34:32.742Z,0
2023-02-16T17:40:55.950Z,0
2023-02-16T17:47:15.917Z,0
2023-02-16T17:53:38.784Z,0
2023-02-16T17:59:58.889Z,0
2023-02-16T18:06:21.845Z,0
2023-02-16T18:12:41.772Z,0
2023-02-16T18:19:04.790Z,0
2023-02-16T18:25:24.776Z,0
2023-02-16T18:31:47.897Z,0
2023-02-16T18:38:07.780Z,0
2023-02-16T18:44:30.801Z,0
2023-02-16T18:50:51.090Z,0
2023-02-16T18:57:13.799Z,0
2023-02-16T19:03:33.894Z,0
2023-02-16T19:09:56.783Z,0
2023-02-16T19:16:16.830Z,0
2023-02-16T19:22:40.006Z,0
2023-02-16T19:28:59.770Z,0
2023-02-16T19:35:22.802Z,0
2023-02-16T19:41:42.795Z,0
2023-02-16T19:48:05.762Z,0
2023-02-16T19:54:25.806Z,0
2023-02-16T20:10:53.687Z,0
2023-02-16T20:17:13.777Z,0
2023-02-16T20:23:36.755Z,0
2023-02-16T20:29:56.829Z,0
2023-02-16T20:36:19.770Z,0
2023-02-16T20:42:39.817Z,0
2023-02-16T20:49:02.803Z,0
2023-02-16T20:55:22.834Z,0
2023-02-16T21:01:45.805Z,0
2023-02-16T21:08:05.826Z,0
2023-02-16T21:14:28.806Z,0
2023-02-16T21:20:48.731Z,0
2023-02-16T21:27:11.854Z,0
2023-02-16T21:33:31.773Z,0
2023-02-16T21:39:54.742Z,0
2023-02-16T21:46:14.834Z,0
2023-02-16T21:52:37.803Z,0
2023-02-16T21:58:57.795Z,0
2023-02-16T22:05:20.805Z,0
2023-02-16T22:11:40.744Z,0
2023-02-16T22:18:03.822Z,0
2023-02-16T22:24:24.026Z,0
2023-02-16T22:30:46.868Z,0
2023-02-16T22:37:06.765Z,0
2023-02-16T22:43:29.826Z,0
2023-02-16T22:49:49.836Z,0
2023-02-16T22:56:12.750Z,0
2023-02-16T23:20:26.760Z,0
2023-02-16T23:26:46.798Z,0
2023-02-16T23:33:09.858Z,0
2023-02-16T23:39:29.835Z,0
2023-02-16T23:45:52.796Z,0
2023-02-16T23:52:12.758Z,0
2023-02-16T23:58:35.823Z,0
